sensor_id;sensor_type;location;lat;lon;timestamp;temperature;humidity
17956;DHT22;27666;51.498;11.966;2022-09-17T00:00:54;13.10;99.90
17956;DHT22;27666;51.498;11.966;2022-09-17T00:03:48;13.10;99.90
17956;DHT22;27666;51.498;11.966;2022-09-17T00:06:35;13.10;99.90
17956;DHT22;27666;51.498;11.966;2022-09-17T00:09:21;13.20;99.90
17956;DHT22;27666;51.498;11.966;2022-09-17T00:12:08;13.20;99.90
17956;DHT22;27666;51.498;11.966;2022-09-17T00:14:55;13.20;99.90
17956;DHT22;27666;51.498;11.966;2022-09-17T00:17:41;13.30;99.90
17956;DHT22;27666;51.498;11.966;2022-09-17T00:20:29;13.20;99.90
17956;DHT22;27666;51.498;11.966;2022-09-17T00:23:16;13.20;99.90
17956;DHT22;27666;51.498;11.966;2022-09-17T00:26:04;13.30;99.90
17956;DHT22;27666;51.498;11.966;2022-09-17T00:28:52;13.30;99.90
17956;DHT22;27666;51.498;11.966;2022-09-17T00:31:39;13.20;99.90
17956;DHT22;27666;51.498;11.966;2022-09-17T00:34:26;13.30;99.90
17956;DHT22;27666;51.498;11.966;2022-09-17T00:37:14;13.20;99.90
17956;DHT22;27666;51.498;11.966;2022-09-17T00:40:01;13.30;99.90
17956;DHT22;27666;51.498;11.966;2022-09-17T00:42:47;13.20;99.90
17956;DHT22;27666;51.498;11.966;2022-09-17T00:45:34;13.30;99.90
17956;DHT22;27666;51.498;11.966;2022-09-17T00:48:20;13.20;99.90
17956;DHT22;27666;51.498;11.966;2022-09-17T00:51:08;13.30;99.90
17956;DHT22;27666;51.498;11.966;2022-09-17T00:53:56;13.30;99.90
17956;DHT22;27666;51.498;11.966;2022-09-17T00:56:43;13.20;99.90
17956;DHT22;27666;51.498;11.966;2022-09-17T00:59:29;13.30;99.90
17956;DHT22;27666;51.498;11.966;2022-09-17T01:02:16;13.30;99.90
17956;DHT22;27666;51.498;11.966;2022-09-17T01:05:03;13.20;99.90
17956;DHT22;27666;51.498;11.966;2022-09-17T01:08:00;13.20;99.90
17956;DHT22;27666;51.498;11.966;2022-09-17T01:11:02;13.20;99.90
17956;DHT22;27666;51.498;11.966;2022-09-17T01:14:00;13.20;99.90
17956;DHT22;27666;51.498;11.966;2022-09-17T01:16:56;13.20;99.90
17956;DHT22;27666;51.498;11.966;2022-09-17T01:23:44;13.10;99.90
17956;DHT22;27666;51.498;11.966;2022-09-17T01:30:17;13.10;99.90
17956;DHT22;27666;51.498;11.966;2022-09-17T01:33:13;13.00;99.90
17956;DHT22;27666;51.498;11.966;2022-09-17T01:36:09;13.10;99.90
17956;DHT22;27666;51.498;11.966;2022-09-17T01:39:04;13.00;99.90
17956;DHT22;27666;51.498;11.966;2022-09-17T01:41:55;13.00;99.90
17956;DHT22;27666;51.498;11.966;2022-09-17T01:44:51;13.00;99.90
17956;DHT22;27666;51.498;11.966;2022-09-17T01:47:41;13.10;99.90
17956;DHT22;27666;51.498;11.966;2022-09-17T01:50:35;13.00;99.90
17956;DHT22;27666;51.498;11.966;2022-09-17T01:53:24;13.00;99.90
17956;DHT22;27666;51.498;11.966;2022-09-17T01:56:18;13.10;99.90
17956;DHT22;27666;51.498;11.966;2022-09-17T01:59:13;13.00;99.90
17956;DHT22;27666;51.498;11.966;2022-09-17T02:02:07;13.00;99.90
17956;DHT22;27666;51.498;11.966;2022-09-17T02:04:57;12.90;99.90
17956;DHT22;27666;51.498;11.966;2022-09-17T02:07:50;12.90;99.90
17956;DHT22;27666;51.498;11.966;2022-09-17T02:10:43;12.90;99.90
17956;DHT22;27666;51.498;11.966;2022-09-17T02:13:33;12.80;99.90
17956;DHT22;27666;51.498;11.966;2022-09-17T02:16:25;12.80;99.90
17956;DHT22;27666;51.498;11.966;2022-09-17T02:19:15;12.80;99.90
17956;DHT22;27666;51.498;11.966;2022-09-17T02:22:09;12.80;99.90
17956;DHT22;27666;51.498;11.966;2022-09-17T02:25:03;12.80;99.90
17956;DHT22;27666;51.498;11.966;2022-09-17T02:27:57;12.80;99.90
17956;DHT22;27666;51.498;11.966;2022-09-17T02:30:47;12.80;99.90
17956;DHT22;27666;51.498;11.966;2022-09-17T02:33:36;12.80;99.90
17956;DHT22;27666;51.498;11.966;2022-09-17T02:36:23;12.80;99.90
17956;DHT22;27666;51.498;11.966;2022-09-17T02:39:10;12.70;99.90
17956;DHT22;27666;51.498;11.966;2022-09-17T02:42:04;12.90;99.90
17956;DHT22;27666;51.498;11.966;2022-09-17T02:44:59;12.80;99.90
17956;DHT22;27666;51.498;11.966;2022-09-17T02:51:43;12.80;99.90
17956;DHT22;27666;51.498;11.966;2022-09-17T02:54:39;12.80;99.90
17956;DHT22;27666;51.498;11.966;2022-09-17T02:57:33;12.80;99.90
17956;DHT22;27666;51.498;11.966;2022-09-17T03:00:23;12.80;99.90
17956;DHT22;27666;51.498;11.966;2022-09-17T03:03:14;12.80;99.90
17956;DHT22;27666;51.498;11.966;2022-09-17T03:06:03;12.80;99.90
17956;DHT22;27666;51.498;11.966;2022-09-17T03:08:51;12.80;99.90
17956;DHT22;27666;51.498;11.966;2022-09-17T03:11:37;12.80;99.90
17956;DHT22;27666;51.498;11.966;2022-09-17T03:14:25;12.90;99.90
17956;DHT22;27666;51.498;11.966;2022-09-17T03:17:11;12.90;99.90
17956;DHT22;27666;51.498;11.966;2022-09-17T03:19:59;13.00;99.90
17956;DHT22;27666;51.498;11.966;2022-09-17T03:22:45;13.00;99.90
17956;DHT22;27666;51.498;11.966;2022-09-17T03:25:32;13.00;99.90
17956;DHT22;27666;51.498;11.966;2022-09-17T03:28:18;12.90;99.90
17956;DHT22;27666;51.498;11.966;2022-09-17T03:31:06;12.90;99.90
17956;DHT22;27666;51.498;11.966;2022-09-17T03:33:52;12.90;99.90
17956;DHT22;27666;51.498;11.966;2022-09-17T03:36:39;12.90;99.90
17956;DHT22;27666;51.498;11.966;2022-09-17T03:39:25;12.80;99.90
17956;DHT22;27666;51.498;11.966;2022-09-17T03:42:12;12.80;99.90
17956;DHT22;27666;51.498;11.966;2022-09-17T03:44:58;12.80;99.90
17956;DHT22;27666;51.498;11.966;2022-09-17T03:47:46;12.90;99.90
17956;DHT22;27666;51.498;11.966;2022-09-17T03:50:32;12.80;99.90
17956;DHT22;27666;51.498;11.966;2022-09-17T03:53:18;12.90;99.90
17956;DHT22;27666;51.498;11.966;2022-09-17T03:56:06;12.80;99.90
17956;DHT22;27666;51.498;11.966;2022-09-17T03:58:56;12.70;99.90
17956;DHT22;27666;51.498;11.966;2022-09-17T04:01:43;12.70;99.90
17956;DHT22;27666;51.498;11.966;2022-09-17T04:04:31;12.70;99.90
17956;DHT22;27666;51.498;11.966;2022-09-17T04:07:17;12.70;99.90
17956;DHT22;27666;51.498;11.966;2022-09-17T04:10:04;12.60;99.90
17956;DHT22;27666;51.498;11.966;2022-09-17T04:12:51;12.70;99.90
17956;DHT22;27666;51.498;11.966;2022-09-17T04:15:37;12.70;99.90
17956;DHT22;27666;51.498;11.966;2022-09-17T04:18:24;12.60;99.90
17956;DHT22;27666;51.498;11.966;2022-09-17T04:21:12;12.70;99.90
17956;DHT22;27666;51.498;11.966;2022-09-17T04:23:58;12.60;99.90
17956;DHT22;27666;51.498;11.966;2022-09-17T04:26:45;12.60;99.90
17956;DHT22;27666;51.498;11.966;2022-09-17T04:29:31;12.60;99.90
17956;DHT22;27666;51.498;11.966;2022-09-17T04:32:18;12.60;99.90
17956;DHT22;27666;51.498;11.966;2022-09-17T04:35:04;12.60;99.90
17956;DHT22;27666;51.498;11.966;2022-09-17T04:37:53;12.60;99.90
17956;DHT22;27666;51.498;11.966;2022-09-17T04:40:39;12.70;99.90
17956;DHT22;27666;51.498;11.966;2022-09-17T04:43:27;12.70;99.90
17956;DHT22;27666;51.498;11.966;2022-09-17T04:46:13;12.80;99.90
17956;DHT22;27666;51.498;11.966;2022-09-17T04:49:01;12.70;99.90
17956;DHT22;27666;51.498;11.966;2022-09-17T04:51:47;12.80;99.90
17956;DHT22;27666;51.498;11.966;2022-09-17T04:54:34;12.80;99.90
17956;DHT22;27666;51.498;11.966;2022-09-17T04:57:21;12.80;99.90
17956;DHT22;27666;51.498;11.966;2022-09-17T05:00:10;12.80;99.90
17956;DHT22;27666;51.498;11.966;2022-09-17T05:02:57;12.80;99.90
17956;DHT22;27666;51.498;11.966;2022-09-17T05:05:43;12.80;99.90
17956;DHT22;27666;51.498;11.966;2022-09-17T05:08:29;12.80;99.90
17956;DHT22;27666;51.498;11.966;2022-09-17T05:11:17;12.80;99.90
17956;DHT22;27666;51.498;11.966;2022-09-17T05:14:04;12.80;99.90
17956;DHT22;27666;51.498;11.966;2022-09-17T05:16:50;12.90;99.90
17956;DHT22;27666;51.498;11.966;2022-09-17T05:19:37;12.90;99.90
17956;DHT22;27666;51.498;11.966;2022-09-17T05:22:23;13.00;99.90
17956;DHT22;27666;51.498;11.966;2022-09-17T05:25:10;13.10;99.90
17956;DHT22;27666;51.498;11.966;2022-09-17T05:27:58;13.10;99.90
17956;DHT22;27666;51.498;11.966;2022-09-17T05:30:46;13.30;99.90
17956;DHT22;27666;51.498;11.966;2022-09-17T05:33:32;13.20;99.90
17956;DHT22;27666;51.498;11.966;2022-09-17T05:36:18;13.20;99.90
17956;DHT22;27666;51.498;11.966;2022-09-17T05:39:05;13.20;99.90
17956;DHT22;27666;51.498;11.966;2022-09-17T05:41:51;13.20;99.90
17956;DHT22;27666;51.498;11.966;2022-09-17T05:44:39;13.20;99.90
17956;DHT22;27666;51.498;11.966;2022-09-17T05:47:26;13.20;99.90
17956;DHT22;27666;51.498;11.966;2022-09-17T05:50:12;13.20;99.90
17956;DHT22;27666;51.498;11.966;2022-09-17T05:53:03;13.20;99.90
17956;DHT22;27666;51.498;11.966;2022-09-17T05:55:50;13.30;99.90
17956;DHT22;27666;51.498;11.966;2022-09-17T05:58:36;13.20;99.90
17956;DHT22;27666;51.498;11.966;2022-09-17T06:01:24;13.20;99.90
17956;DHT22;27666;51.498;11.966;2022-09-17T06:04:11;13.20;99.90
17956;DHT22;27666;51.498;11.966;2022-09-17T06:06:57;13.20;99.90
17956;DHT22;27666;51.498;11.966;2022-09-17T06:09:44;13.20;99.90
17956;DHT22;27666;51.498;11.966;2022-09-17T06:12:30;13.30;99.90
17956;DHT22;27666;51.498;11.966;2022-09-17T06:15:19;13.50;99.90
17956;DHT22;27666;51.498;11.966;2022-09-17T06:18:08;13.90;99.90
17956;DHT22;27666;51.498;11.966;2022-09-17T06:20:54;14.30;99.90
17956;DHT22;27666;51.498;11.966;2022-09-17T06:23:41;14.70;99.90
17956;DHT22;27666;51.498;11.966;2022-09-17T06:26:28;14.80;99.90
17956;DHT22;27666;51.498;11.966;2022-09-17T06:29:14;15.00;99.90
17956;DHT22;27666;51.498;11.966;2022-09-17T06:32:01;15.00;99.90
17956;DHT22;27666;51.498;11.966;2022-09-17T06:34:49;15.00;99.90
17956;DHT22;27666;51.498;11.966;2022-09-17T06:37:35;15.30;99.90
17956;DHT22;27666;51.498;11.966;2022-09-17T06:40:24;15.40;99.90
17956;DHT22;27666;51.498;11.966;2022-09-17T06:43:10;15.50;99.90
17956;DHT22;27666;51.498;11.966;2022-09-17T06:45:58;15.40;99.90
17956;DHT22;27666;51.498;11.966;2022-09-17T06:48:44;15.20;99.90
17956;DHT22;27666;51.498;11.966;2022-09-17T06:51:32;15.20;99.90
17956;DHT22;27666;51.498;11.966;2022-09-17T06:54:18;15.30;99.90
17956;DHT22;27666;51.498;11.966;2022-09-17T06:57:05;15.50;99.90
17956;DHT22;27666;51.498;11.966;2022-09-17T06:59:51;15.80;99.90
17956;DHT22;27666;51.498;11.966;2022-09-17T07:02:38;16.10;99.90
17956;DHT22;27666;51.498;11.966;2022-09-17T07:05:25;16.50;99.90
17956;DHT22;27666;51.498;11.966;2022-09-17T07:08:13;16.80;99.90
17956;DHT22;27666;51.498;11.966;2022-09-17T07:10:59;16.80;99.90
17956;DHT22;27666;51.498;11.966;2022-09-17T07:13:45;16.90;99.90
17956;DHT22;27666;51.498;11.966;2022-09-17T07:16:32;17.30;99.90
17956;DHT22;27666;51.498;11.966;2022-09-17T07:19:21;17.40;99.90
17956;DHT22;27666;51.498;11.966;2022-09-17T07:22:07;17.50;99.90
17956;DHT22;27666;51.498;11.966;2022-09-17T07:24:55;17.50;99.90
17956;DHT22;27666;51.498;11.966;2022-09-17T07:27:41;17.40;99.90
17956;DHT22;27666;51.498;11.966;2022-09-17T07:30:27;17.40;99.90
17956;DHT22;27666;51.498;11.966;2022-09-17T07:33:14;17.50;99.90
17956;DHT22;27666;51.498;11.966;2022-09-17T07:36:02;17.80;99.90
17956;DHT22;27666;51.498;11.966;2022-09-17T07:38:49;17.90;99.90
17956;DHT22;27666;51.498;11.966;2022-09-17T07:41:37;17.90;99.90
17956;DHT22;27666;51.498;11.966;2022-09-17T07:44:23;17.80;99.90
17956;DHT22;27666;51.498;11.966;2022-09-17T07:47:10;17.50;99.90
17956;DHT22;27666;51.498;11.966;2022-09-17T07:49:56;17.30;99.90
17956;DHT22;27666;51.498;11.966;2022-09-17T07:52:45;17.20;99.90
17956;DHT22;27666;51.498;11.966;2022-09-17T07:55:32;17.30;99.90
17956;DHT22;27666;51.498;11.966;2022-09-17T07:58:20;17.30;99.90
17956;DHT22;27666;51.498;11.966;2022-09-17T08:01:08;17.30;99.90
17956;DHT22;27666;51.498;11.966;2022-09-17T08:03:55;17.30;99.90
17956;DHT22;27666;51.498;11.966;2022-09-17T08:06:41;17.30;99.90
17956;DHT22;27666;51.498;11.966;2022-09-17T08:09:32;17.20;99.90
17956;DHT22;27666;51.498;11.966;2022-09-17T08:12:18;17.10;99.90
17956;DHT22;27666;51.498;11.966;2022-09-17T08:15:09;17.10;99.90
17956;DHT22;27666;51.498;11.966;2022-09-17T08:17:55;16.90;99.90
17956;DHT22;27666;51.498;11.966;2022-09-17T08:20:41;16.90;99.90
17956;DHT22;27666;51.498;11.966;2022-09-17T08:23:29;16.80;99.90
17956;DHT22;27666;51.498;11.966;2022-09-17T08:26:17;16.90;99.90
17956;DHT22;27666;51.498;11.966;2022-09-17T08:29:05;16.80;99.90
17956;DHT22;27666;51.498;11.966;2022-09-17T08:31:52;16.70;99.90
17956;DHT22;27666;51.498;11.966;2022-09-17T08:34:39;16.70;99.90
17956;DHT22;27666;51.498;11.966;2022-09-17T08:37:26;16.70;99.90
17956;DHT22;27666;51.498;11.966;2022-09-17T08:40:16;16.80;99.90
17956;DHT22;27666;51.498;11.966;2022-09-17T08:43:12;16.60;99.90
17956;DHT22;27666;51.498;11.966;2022-09-17T08:46:01;16.60;99.90
17956;DHT22;27666;51.498;11.966;2022-09-17T08:48:55;16.40;99.90
17956;DHT22;27666;51.498;11.966;2022-09-17T08:51:55;16.50;99.90
17956;DHT22;27666;51.498;11.966;2022-09-17T08:54:48;16.80;99.90
17956;DHT22;27666;51.498;11.966;2022-09-17T08:57:41;17.00;99.90
17956;DHT22;27666;51.498;11.966;2022-09-17T09:00:37;17.30;99.90
17956;DHT22;27666;51.498;11.966;2022-09-17T09:03:34;17.30;99.90
17956;DHT22;27666;51.498;11.966;2022-09-17T09:06:30;17.40;99.90
17956;DHT22;27666;51.498;11.966;2022-09-17T09:09:21;17.40;99.90
17956;DHT22;27666;51.498;11.966;2022-09-17T09:12:12;17.40;99.90
17956;DHT22;27666;51.498;11.966;2022-09-17T09:15:06;17.60;99.90
17956;DHT22;27666;51.498;11.966;2022-09-17T09:18:04;17.80;99.90
17956;DHT22;27666;51.498;11.966;2022-09-17T09:21:03;18.00;99.90
17956;DHT22;27666;51.498;11.966;2022-09-17T09:23:55;18.10;99.90
17956;DHT22;27666;51.498;11.966;2022-09-17T09:26:44;18.10;99.90
17956;DHT22;27666;51.498;11.966;2022-09-17T09:29:38;18.10;99.90
17956;DHT22;27666;51.498;11.966;2022-09-17T09:32:48;18.10;99.90
17956;DHT22;27666;51.498;11.966;2022-09-17T09:35:40;18.10;99.90
17956;DHT22;27666;51.498;11.966;2022-09-17T09:38:31;18.00;99.90
17956;DHT22;27666;51.498;11.966;2022-09-17T09:41:25;18.30;99.90
17956;DHT22;27666;51.498;11.966;2022-09-17T09:44:13;18.60;99.90
17956;DHT22;27666;51.498;11.966;2022-09-17T09:47:11;19.00;99.90
17956;DHT22;27666;51.498;11.966;2022-09-17T09:50:14;19.20;99.90
17956;DHT22;27666;51.498;11.966;2022-09-17T09:53:09;19.40;99.90
17956;DHT22;27666;51.498;11.966;2022-09-17T09:56:25;19.80;99.30
17956;DHT22;27666;51.498;11.966;2022-09-17T09:59:14;20.00;99.00
17956;DHT22;27666;51.498;11.966;2022-09-17T10:02:01;20.10;97.70
17956;DHT22;27666;51.498;11.966;2022-09-17T10:04:48;20.30;97.50
17956;DHT22;27666;51.498;11.966;2022-09-17T10:07:42;20.10;96.90
17956;DHT22;27666;51.498;11.966;2022-09-17T10:10:28;19.80;96.20
17956;DHT22;27666;51.498;11.966;2022-09-17T10:13:19;19.80;96.40
17956;DHT22;27666;51.498;11.966;2022-09-17T10:16:15;19.80;96.30
17956;DHT22;27666;51.498;11.966;2022-09-17T10:19:12;19.70;96.00
17956;DHT22;27666;51.498;11.966;2022-09-17T10:22:22;20.10;95.80
17956;DHT22;27666;51.498;11.966;2022-09-17T10:25:27;19.90;94.70
17956;DHT22;27666;51.498;11.966;2022-09-17T10:28:36;19.50;94.70
17956;DHT22;27666;51.498;11.966;2022-09-17T10:31:45;19.30;95.00
17956;DHT22;27666;51.498;11.966;2022-09-17T10:34:32;19.00;94.90
17956;DHT22;27666;51.498;11.966;2022-09-17T10:37:32;18.90;95.00
17956;DHT22;27666;51.498;11.966;2022-09-17T10:40:28;19.00;95.30
17956;DHT22;27666;51.498;11.966;2022-09-17T10:43:21;19.40;95.30
17956;DHT22;27666;51.498;11.966;2022-09-17T10:46:13;19.40;96.30
17956;DHT22;27666;51.498;11.966;2022-09-17T10:49:08;19.00;96.90
17956;DHT22;27666;51.498;11.966;2022-09-17T10:52:04;18.60;96.60
17956;DHT22;27666;51.498;11.966;2022-09-17T10:55:17;18.30;96.70
17956;DHT22;27666;51.498;11.966;2022-09-17T10:58:14;18.20;95.40
17956;DHT22;27666;51.498;11.966;2022-09-17T11:01:13;18.30;95.10
17956;DHT22;27666;51.498;11.966;2022-09-17T11:04:24;18.60;95.90
17956;DHT22;27666;51.498;11.966;2022-09-17T11:07:36;18.80;95.30
17956;DHT22;27666;51.498;11.966;2022-09-17T11:10:29;19.00;94.10
17956;DHT22;27666;51.498;11.966;2022-09-17T11:13:26;18.90;93.70
17956;DHT22;27666;51.498;11.966;2022-09-17T11:16:28;18.80;92.90
17956;DHT22;27666;51.498;11.966;2022-09-17T11:19:22;18.80;92.70
17956;DHT22;27666;51.498;11.966;2022-09-17T11:22:16;18.80;92.80
17956;DHT22;27666;51.498;11.966;2022-09-17T11:25:21;18.90;92.70
17956;DHT22;27666;51.498;11.966;2022-09-17T11:28:20;19.00;92.60
17956;DHT22;27666;51.498;11.966;2022-09-17T11:31:23;19.00;92.50
17956;DHT22;27666;51.498;11.966;2022-09-17T11:34:23;18.90;92.60
17956;DHT22;27666;51.498;11.966;2022-09-17T11:37:17;19.00;91.60
17956;DHT22;27666;51.498;11.966;2022-09-17T11:40:11;19.10;91.30
17956;DHT22;27666;51.498;11.966;2022-09-17T11:43:02;19.00;90.90
17956;DHT22;27666;51.498;11.966;2022-09-17T11:45:57;18.80;89.80
17956;DHT22;27666;51.498;11.966;2022-09-17T11:48:50;18.80;90.30
17956;DHT22;27666;51.498;11.966;2022-09-17T11:51:42;18.60;90.00
17956;DHT22;27666;51.498;11.966;2022-09-17T11:54:34;18.50;89.70
17956;DHT22;27666;51.498;11.966;2022-09-17T11:57:25;18.40;90.50
17956;DHT22;27666;51.498;11.966;2022-09-17T12:00:15;18.30;90.50
17956;DHT22;27666;51.498;11.966;2022-09-17T12:03:08;18.20;90.30
17956;DHT22;27666;51.498;11.966;2022-09-17T12:06:05;18.00;89.90
17956;DHT22;27666;51.498;11.966;2022-09-17T12:08:58;17.80;89.60
17956;DHT22;27666;51.498;11.966;2022-09-17T12:11:51;17.60;89.60
17956;DHT22;27666;51.498;11.966;2022-09-17T12:14:45;17.50;88.40
17956;DHT22;27666;51.498;11.966;2022-09-17T12:17:38;17.50;86.80
17956;DHT22;27666;51.498;11.966;2022-09-17T12:20:30;17.50;85.70
17956;DHT22;27666;51.498;11.966;2022-09-17T12:23:33;17.50;85.30
17956;DHT22;27666;51.498;11.966;2022-09-17T12:26:43;17.50;85.80
17956;DHT22;27666;51.498;11.966;2022-09-17T12:29:46;17.30;86.40
17956;DHT22;27666;51.498;11.966;2022-09-17T12:32:57;17.30;87.60
17956;DHT22;27666;51.498;11.966;2022-09-17T12:42:18;17.40;88.40
17956;DHT22;27666;51.498;11.966;2022-09-17T12:45:31;17.50;89.00
17956;DHT22;27666;51.498;11.966;2022-09-17T12:48:38;17.80;88.50
17956;DHT22;27666;51.498;11.966;2022-09-17T12:51:42;17.80;85.70
17956;DHT22;27666;51.498;11.966;2022-09-17T12:54:48;17.70;86.90
17956;DHT22;27666;51.498;11.966;2022-09-17T12:57:46;17.70;88.30
17956;DHT22;27666;51.498;11.966;2022-09-17T13:00:37;17.70;90.10
17956;DHT22;27666;51.498;11.966;2022-09-17T13:03:28;17.60;90.00
17956;DHT22;27666;51.498;11.966;2022-09-17T13:09:57;17.40;96.80
17956;DHT22;27666;51.498;11.966;2022-09-17T13:12:46;17.20;96.90
17956;DHT22;27666;51.498;11.966;2022-09-17T13:15:45;17.00;97.70
17956;DHT22;27666;51.498;11.966;2022-09-17T13:18:37;16.70;98.70
17956;DHT22;27666;51.498;11.966;2022-09-17T13:21:38;16.60;99.30
17956;DHT22;27666;51.498;11.966;2022-09-17T13:24:28;16.60;99.90
17956;DHT22;27666;51.498;11.966;2022-09-17T13:27:21;16.50;99.60
17956;DHT22;27666;51.498;11.966;2022-09-17T13:30:12;16.60;99.60
17956;DHT22;27666;51.498;11.966;2022-09-17T13:32:59;16.70;99.10
17956;DHT22;27666;51.498;11.966;2022-09-17T13:35:49;16.80;98.70
17956;DHT22;27666;51.498;11.966;2022-09-17T13:38:40;16.80;98.20
17956;DHT22;27666;51.498;11.966;2022-09-17T13:41:30;16.90;98.10
17956;DHT22;27666;51.498;11.966;2022-09-17T13:44:21;16.90;98.60
17956;DHT22;27666;51.498;11.966;2022-09-17T13:47:21;17.00;96.00
17956;DHT22;27666;51.498;11.966;2022-09-17T13:50:11;17.10;94.70
17956;DHT22;27666;51.498;11.966;2022-09-17T13:53:17;17.20;94.90
17956;DHT22;27666;51.498;11.966;2022-09-17T13:56:27;17.40;92.90
17956;DHT22;27666;51.498;11.966;2022-09-17T13:59:18;17.50;93.00
17956;DHT22;27666;51.498;11.966;2022-09-17T14:02:33;17.60;91.70
17956;DHT22;27666;51.498;11.966;2022-09-17T14:05:35;17.60;91.00
17956;DHT22;27666;51.498;11.966;2022-09-17T14:08:30;17.70;90.60
17956;DHT22;27666;51.498;11.966;2022-09-17T14:11:40;17.80;90.70
17956;DHT22;27666;51.498;11.966;2022-09-17T14:14:44;17.80;90.40
17956;DHT22;27666;51.498;11.966;2022-09-17T14:17:50;17.80;90.60
17956;DHT22;27666;51.498;11.966;2022-09-17T14:20:38;17.40;94.60
17956;DHT22;27666;51.498;11.966;2022-09-17T14:23:26;17.00;97.20
17956;DHT22;27666;51.498;11.966;2022-09-17T14:26:27;16.80;98.00
17956;DHT22;27666;51.498;11.966;2022-09-17T14:29:36;16.70;96.80
17956;DHT22;27666;51.498;11.966;2022-09-17T14:32:30;16.70;93.90
17956;DHT22;27666;51.498;11.966;2022-09-17T14:35:23;16.60;92.70
17956;DHT22;27666;51.498;11.966;2022-09-17T14:38:18;16.40;91.70
17956;DHT22;27666;51.498;11.966;2022-09-17T14:41:19;16.30;91.50
17956;DHT22;27666;51.498;11.966;2022-09-17T14:44:12;16.10;92.20
17956;DHT22;27666;51.498;11.966;2022-09-17T14:47:06;16.10;91.40
17956;DHT22;27666;51.498;11.966;2022-09-17T14:50:22;16.10;91.60
17956;DHT22;27666;51.498;11.966;2022-09-17T14:53:18;16.20;91.80
17956;DHT22;27666;51.498;11.966;2022-09-17T14:56:08;16.20;91.90
17956;DHT22;27666;51.498;11.966;2022-09-17T14:59:00;16.30;92.20
17956;DHT22;27666;51.498;11.966;2022-09-17T15:01:49;16.40;91.90
17956;DHT22;27666;51.498;11.966;2022-09-17T15:04:42;16.50;92.20
17956;DHT22;27666;51.498;11.966;2022-09-17T15:07:30;16.60;93.00
17956;DHT22;27666;51.498;11.966;2022-09-17T15:10:21;16.60;93.50
17956;DHT22;27666;51.498;11.966;2022-09-17T15:13:12;16.50;94.20
17956;DHT22;27666;51.498;11.966;2022-09-17T15:16:06;16.40;95.40
17956;DHT22;27666;51.498;11.966;2022-09-17T15:19:02;16.30;96.00
17956;DHT22;27666;51.498;11.966;2022-09-17T15:22:05;16.20;96.20
17956;DHT22;27666;51.498;11.966;2022-09-17T15:25:01;16.10;96.70
17956;DHT22;27666;51.498;11.966;2022-09-17T15:27:53;16.10;96.90
17956;DHT22;27666;51.498;11.966;2022-09-17T15:30:52;15.90;96.90
17956;DHT22;27666;51.498;11.966;2022-09-17T15:33:43;15.80;97.30
17956;DHT22;27666;51.498;11.966;2022-09-17T15:36:33;15.70;97.00
17956;DHT22;27666;51.498;11.966;2022-09-17T15:39:28;15.80;96.60
17956;DHT22;27666;51.498;11.966;2022-09-17T15:42:24;15.70;96.40
17956;DHT22;27666;51.498;11.966;2022-09-17T15:45:17;15.70;96.50
17956;DHT22;27666;51.498;11.966;2022-09-17T15:48:05;15.70;96.80
17956;DHT22;27666;51.498;11.966;2022-09-17T15:50:57;15.60;97.10
17956;DHT22;27666;51.498;11.966;2022-09-17T15:53:51;15.60;97.20
17956;DHT22;27666;51.498;11.966;2022-09-17T15:56:40;15.60;97.30
17956;DHT22;27666;51.498;11.966;2022-09-17T15:59:35;15.50;97.40
17956;DHT22;27666;51.498;11.966;2022-09-17T16:02:30;15.60;97.30
17956;DHT22;27666;51.498;11.966;2022-09-17T16:05:48;15.60;97.60
17956;DHT22;27666;51.498;11.966;2022-09-17T16:08:50;15.50;98.20
17956;DHT22;27666;51.498;11.966;2022-09-17T16:11:56;15.40;99.10
17956;DHT22;27666;51.498;11.966;2022-09-17T16:14:49;15.30;99.70
17956;DHT22;27666;51.498;11.966;2022-09-17T16:17:45;15.20;99.90
17956;DHT22;27666;51.498;11.966;2022-09-17T16:20:34;15.10;99.90
17956;DHT22;27666;51.498;11.966;2022-09-17T16:23:20;15.00;99.90
17956;DHT22;27666;51.498;11.966;2022-09-17T16:26:11;14.90;99.90
17956;DHT22;27666;51.498;11.966;2022-09-17T16:29:02;14.80;99.90
17956;DHT22;27666;51.498;11.966;2022-09-17T16:31:51;14.60;99.90
17956;DHT22;27666;51.498;11.966;2022-09-17T16:34:38;14.40;99.90
17956;DHT22;27666;51.498;11.966;2022-09-17T16:37:24;14.30;99.90
17956;DHT22;27666;51.498;11.966;2022-09-17T16:40:11;14.20;99.90
17956;DHT22;27666;51.498;11.966;2022-09-17T16:42:59;14.10;99.90
17956;DHT22;27666;51.498;11.966;2022-09-17T16:45:57;14.10;99.90
17956;DHT22;27666;51.498;11.966;2022-09-17T16:48:48;14.10;99.90
17956;DHT22;27666;51.498;11.966;2022-09-17T16:51:35;14.00;99.90
17956;DHT22;27666;51.498;11.966;2022-09-17T16:54:22;14.00;99.90
17956;DHT22;27666;51.498;11.966;2022-09-17T16:57:08;14.00;99.90
17956;DHT22;27666;51.498;11.966;2022-09-17T16:59:55;14.00;99.90
17956;DHT22;27666;51.498;11.966;2022-09-17T17:02:41;13.90;99.90
17956;DHT22;27666;51.498;11.966;2022-09-17T17:05:35;14.00;99.90
17956;DHT22;27666;51.498;11.966;2022-09-17T17:08:22;13.90;99.90
17956;DHT22;27666;51.498;11.966;2022-09-17T17:11:08;13.80;99.90
17956;DHT22;27666;51.498;11.966;2022-09-17T17:13:55;13.60;99.90
17956;DHT22;27666;51.498;11.966;2022-09-17T17:16:41;13.50;99.90
17956;DHT22;27666;51.498;11.966;2022-09-17T17:19:28;13.40;99.90
17956;DHT22;27666;51.498;11.966;2022-09-17T17:22:16;13.30;99.90
17956;DHT22;27666;51.498;11.966;2022-09-17T17:25:03;13.20;99.90
17956;DHT22;27666;51.498;11.966;2022-09-17T17:27:50;13.20;99.90
17956;DHT22;27666;51.498;11.966;2022-09-17T17:30:36;13.20;99.90
17956;DHT22;27666;51.498;11.966;2022-09-17T17:33:23;13.10;99.90
17956;DHT22;27666;51.498;11.966;2022-09-17T17:36:10;13.10;99.90
17956;DHT22;27666;51.498;11.966;2022-09-17T17:38:58;13.10;99.90
17956;DHT22;27666;51.498;11.966;2022-09-17T17:41:44;13.00;99.90
17956;DHT22;27666;51.498;11.966;2022-09-17T17:44:35;13.00;99.90
17956;DHT22;27666;51.498;11.966;2022-09-17T17:47:22;13.00;99.90
17956;DHT22;27666;51.498;11.966;2022-09-17T17:50:08;13.10;99.90
17956;DHT22;27666;51.498;11.966;2022-09-17T17:52:55;13.00;99.90
17956;DHT22;27666;51.498;11.966;2022-09-17T17:55:49;13.00;99.90
17956;DHT22;27666;51.498;11.966;2022-09-17T17:58:40;13.10;99.90
17956;DHT22;27666;51.498;11.966;2022-09-17T18:01:28;13.00;99.90
17956;DHT22;27666;51.498;11.966;2022-09-17T18:04:15;12.90;99.90
17956;DHT22;27666;51.498;11.966;2022-09-17T18:07:01;12.90;99.90